sensor_id;sensor_type;location;lat;lon;timestamp;P1;durP1;ratioP1;P2;durP2;ratioP2
9076;SDS011;4574;51.072;17.174;2022-12-18T00:00:06;31.57;;;12.53;;
9076;SDS011;4574;51.072;17.174;2022-12-18T00:02:36;27.57;;;13.10;;
9076;SDS011;4574;51.072;17.174;2022-12-18T00:05:07;29.53;;;13.20;;
9076;SDS011;4574;51.072;17.174;2022-12-18T00:07:36;31.87;;;14.23;;
9076;SDS011;4574;51.072;17.174;2022-12-18T00:10:05;30.20;;;13.13;;
9076;SDS011;4574;51.072;17.174;2022-12-18T00:12:34;28.90;;;14.80;;
9076;SDS011;4574;51.072;17.174;2022-12-18T00:15:03;35.40;;;15.20;;
9076;SDS011;4574;51.072;17.174;2022-12-18T00:17:32;31.73;;;14.27;;
9076;SDS011;4574;51.072;17.174;2022-12-18T00:20:00;36.60;;;15.17;;
9076;SDS011;4574;51.072;17.174;2022-12-18T00:22:30;31.77;;;12.83;;
9076;SDS011;4574;51.072;17.174;2022-12-18T00:24:58;29.30;;;14.13;;
9076;SDS011;4574;51.072;17.174;2022-12-18T00:27:27;30.50;;;13.37;;
9076;SDS011;4574;51.072;17.174;2022-12-18T00:29:55;36.17;;;14.57;;
9076;SDS011;4574;51.072;17.174;2022-12-18T00:32:23;30.33;;;13.07;;
9076;SDS011;4574;51.072;17.174;2022-12-18T00:34:52;34.37;;;14.70;;
9076;SDS011;4574;51.072;17.174;2022-12-18T00:37:20;30.70;;;13.80;;
9076;SDS011;4574;51.072;17.174;2022-12-18T00:39:50;28.63;;;12.57;;
9076;SDS011;4574;51.072;17.174;2022-12-18T00:42:19;31.37;;;13.63;;
9076;SDS011;4574;51.072;17.174;2022-12-18T00:45:05;33.83;;;13.23;;
9076;SDS011;4574;51.072;17.174;2022-12-18T00:47:39;28.23;;;12.40;;
9076;SDS011;4574;51.072;17.174;2022-12-18T00:50:08;27.97;;;12.17;;
9076;SDS011;4574;51.072;17.174;2022-12-18T00:52:40;26.50;;;11.80;;
9076;SDS011;4574;51.072;17.174;2022-12-18T00:55:10;29.03;;;13.57;;
9076;SDS011;4574;51.072;17.174;2022-12-18T00:57:40;31.60;;;13.30;;
9076;SDS011;4574;51.072;17.174;2022-12-18T01:00:10;33.40;;;13.33;;
9076;SDS011;4574;51.072;17.174;2022-12-18T01:02:39;33.80;;;13.20;;
9076;SDS011;4574;51.072;17.174;2022-12-18T01:05:10;29.37;;;13.37;;
9076;SDS011;4574;51.072;17.174;2022-12-18T01:07:39;31.17;;;12.40;;
9076;SDS011;4574;51.072;17.174;2022-12-18T01:10:09;31.27;;;13.87;;
9076;SDS011;4574;51.072;17.174;2022-12-18T01:12:40;29.93;;;13.27;;
9076;SDS011;4574;51.072;17.174;2022-12-18T01:15:10;29.30;;;12.73;;
9076;SDS011;4574;51.072;17.174;2022-12-18T01:17:40;29.00;;;13.67;;
9076;SDS011;4574;51.072;17.174;2022-12-18T01:20:09;38.20;;;14.50;;
9076;SDS011;4574;51.072;17.174;2022-12-18T01:22:40;26.23;;;13.17;;
9076;SDS011;4574;51.072;17.174;2022-12-18T01:25:10;27.77;;;12.70;;
9076;SDS011;4574;51.072;17.174;2022-12-18T01:27:39;29.23;;;13.40;;
9076;SDS011;4574;51.072;17.174;2022-12-18T01:30:07;32.00;;;13.13;;
9076;SDS011;4574;51.072;17.174;2022-12-18T01:32:37;28.33;;;12.83;;
9076;SDS011;4574;51.072;17.174;2022-12-18T01:35:06;24.50;;;11.33;;
9076;SDS011;4574;51.072;17.174;2022-12-18T01:37:35;29.20;;;12.33;;
9076;SDS011;4574;51.072;17.174;2022-12-18T01:40:03;29.17;;;13.53;;
9076;SDS011;4574;51.072;17.174;2022-12-18T01:42:34;29.67;;;13.13;;
9076;SDS011;4574;51.072;17.174;2022-12-18T01:45:04;27.17;;;12.10;;
9076;SDS011;4574;51.072;17.174;2022-12-18T01:47:36;31.07;;;12.77;;
9076;SDS011;4574;51.072;17.174;2022-12-18T01:50:08;27.67;;;12.20;;
9076;SDS011;4574;51.072;17.174;2022-12-18T01:52:39;29.23;;;13.30;;
9076;SDS011;4574;51.072;17.174;2022-12-18T01:55:10;28.83;;;13.67;;
9076;SDS011;4574;51.072;17.174;2022-12-18T01:57:42;27.87;;;12.90;;
9076;SDS011;4574;51.072;17.174;2022-12-18T02:00:12;33.10;;;14.23;;
9076;SDS011;4574;51.072;17.174;2022-12-18T02:02:43;31.33;;;14.57;;
9076;SDS011;4574;51.072;17.174;2022-12-18T02:05:14;33.07;;;13.10;;
9076;SDS011;4574;51.072;17.174;2022-12-18T02:07:48;26.23;;;12.80;;
9076;SDS011;4574;51.072;17.174;2022-12-18T02:10:38;27.93;;;13.70;;
9076;SDS011;4574;51.072;17.174;2022-12-18T02:13:17;27.90;;;12.90;;
9076;SDS011;4574;51.072;17.174;2022-12-18T02:15:51;33.87;;;14.00;;
9076;SDS011;4574;51.072;17.174;2022-12-18T02:18:27;26.27;;;12.23;;
9076;SDS011;4574;51.072;17.174;2022-12-18T02:21:00;33.50;;;13.37;;
9076;SDS011;4574;51.072;17.174;2022-12-18T02:23:41;36.03;;;15.43;;
9076;SDS011;4574;51.072;17.174;2022-12-18T02:26:20;31.03;;;14.00;;
9076;SDS011;4574;51.072;17.174;2022-12-18T02:28:55;27.37;;;13.43;;
9076;SDS011;4574;51.072;17.174;2022-12-18T02:31:30;29.40;;;14.27;;
9076;SDS011;4574;51.072;17.174;2022-12-18T02:34:04;34.23;;;14.70;;
9076;SDS011;4574;51.072;17.174;2022-12-18T02:36:36;32.43;;;13.23;;
9076;SDS011;4574;51.072;17.174;2022-12-18T02:39:09;28.80;;;12.87;;
9076;SDS011;4574;51.072;17.174;2022-12-18T02:41:40;28.00;;;12.87;;
9076;SDS011;4574;51.072;17.174;2022-12-18T02:44:10;24.23;;;11.60;;
9076;SDS011;4574;51.072;17.174;2022-12-18T02:46:41;27.20;;;12.53;;
9076;SDS011;4574;51.072;17.174;2022-12-18T02:49:14;30.57;;;14.07;;
9076;SDS011;4574;51.072;17.174;2022-12-18T02:51:53;26.97;;;13.37;;
9076;SDS011;4574;51.072;17.174;2022-12-18T02:54:28;23.77;;;12.57;;
9076;SDS011;4574;51.072;17.174;2022-12-18T02:57:10;33.90;;;12.30;;
9076;SDS011;4574;51.072;17.174;2022-12-18T02:59:46;28.43;;;12.47;;
9076;SDS011;4574;51.072;17.174;2022-12-18T03:04:58;26.73;;;12.17;;
9076;SDS011;4574;51.072;17.174;2022-12-18T03:07:34;30.10;;;13.03;;
9076;SDS011;4574;51.072;17.174;2022-12-18T03:10:06;28.60;;;12.80;;
9076;SDS011;4574;51.072;17.174;2022-12-18T03:12:42;29.70;;;12.40;;
9076;SDS011;4574;51.072;17.174;2022-12-18T03:15:15;29.67;;;12.67;;
9076;SDS011;4574;51.072;17.174;2022-12-18T03:17:48;27.43;;;11.87;;
9076;SDS011;4574;51.072;17.174;2022-12-18T03:20:21;26.87;;;11.80;;
9076;SDS011;4574;51.072;17.174;2022-12-18T03:22:53;28.57;;;12.37;;
9076;SDS011;4574;51.072;17.174;2022-12-18T03:25:27;24.27;;;12.23;;
9076;SDS011;4574;51.072;17.174;2022-12-18T03:28:00;29.80;;;12.97;;
9076;SDS011;4574;51.072;17.174;2022-12-18T03:30:31;26.23;;;12.17;;
9076;SDS011;4574;51.072;17.174;2022-12-18T03:33:05;28.90;;;12.47;;
9076;SDS011;4574;51.072;17.174;2022-12-18T03:35:38;29.03;;;12.20;;
9076;SDS011;4574;51.072;17.174;2022-12-18T03:38:09;24.87;;;11.40;;
9076;SDS011;4574;51.072;17.174;2022-12-18T03:40:43;25.97;;;12.93;;
9076;SDS011;4574;51.072;17.174;2022-12-18T03:43:22;29.50;;;12.57;;
9076;SDS011;4574;51.072;17.174;2022-12-18T03:45:59;29.10;;;12.43;;
9076;SDS011;4574;51.072;17.174;2022-12-18T03:48:34;31.30;;;12.00;;
9076;SDS011;4574;51.072;17.174;2022-12-18T03:51:08;31.07;;;13.10;;
9076;SDS011;4574;51.072;17.174;2022-12-18T03:53:43;33.23;;;13.70;;
9076;SDS011;4574;51.072;17.174;2022-12-18T03:56:20;26.43;;;13.03;;
9076;SDS011;4574;51.072;17.174;2022-12-18T03:58:51;28.33;;;11.77;;
9076;SDS011;4574;51.072;17.174;2022-12-18T04:01:23;29.63;;;11.83;;
9076;SDS011;4574;51.072;17.174;2022-12-18T04:03:56;25.83;;;10.87;;
9076;SDS011;4574;51.072;17.174;2022-12-18T04:06:27;28.60;;;12.77;;
9076;SDS011;4574;51.072;17.174;2022-12-18T04:08:57;27.90;;;13.27;;
9076;SDS011;4574;51.072;17.174;2022-12-18T04:11:26;29.83;;;11.57;;
9076;SDS011;4574;51.072;17.174;2022-12-18T04:13:56;25.77;;;11.83;;
9076;SDS011;4574;51.072;17.174;2022-12-18T04:16:31;32.63;;;13.23;;
9076;SDS011;4574;51.072;17.174;2022-12-18T04:18:59;26.27;;;13.07;;
9076;SDS011;4574;51.072;17.174;2022-12-18T04:21:28;24.10;;;11.83;;
9076;SDS011;4574;51.072;17.174;2022-12-18T04:23:56;26.50;;;13.43;;
9076;SDS011;4574;51.072;17.174;2022-12-18T04:26:25;28.30;;;12.77;;
9076;SDS011;4574;51.072;17.174;2022-12-18T04:28:53;30.83;;;12.97;;
9076;SDS011;4574;51.072;17.174;2022-12-18T04:31:23;29.50;;;13.83;;
9076;SDS011;4574;51.072;17.174;2022-12-18T04:33:52;27.27;;;12.73;;
9076;SDS011;4574;51.072;17.174;2022-12-18T04:36:20;28.80;;;12.90;;
9076;SDS011;4574;51.072;17.174;2022-12-18T04:38:49;25.70;;;12.03;;
9076;SDS011;4574;51.072;17.174;2022-12-18T04:41:17;28.20;;;12.60;;
9076;SDS011;4574;51.072;17.174;2022-12-18T04:43:46;33.43;;;12.60;;
9076;SDS011;4574;51.072;17.174;2022-12-18T04:46:14;29.67;;;13.07;;
9076;SDS011;4574;51.072;17.174;2022-12-18T04:48:45;25.17;;;11.83;;
9076;SDS011;4574;51.072;17.174;2022-12-18T04:51:14;30.97;;;14.17;;
9076;SDS011;4574;51.072;17.174;2022-12-18T04:53:50;36.57;;;14.27;;
9076;SDS011;4574;51.072;17.174;2022-12-18T04:56:18;29.97;;;13.13;;
9076;SDS011;4574;51.072;17.174;2022-12-18T04:58:47;30.10;;;13.97;;
9076;SDS011;4574;51.072;17.174;2022-12-18T05:01:16;35.07;;;14.43;;
9076;SDS011;4574;51.072;17.174;2022-12-18T05:03:47;28.73;;;12.93;;
9076;SDS011;4574;51.072;17.174;2022-12-18T05:06:15;27.13;;;13.67;;
9076;SDS011;4574;51.072;17.174;2022-12-18T05:08:44;33.60;;;13.87;;
9076;SDS011;4574;51.072;17.174;2022-12-18T05:11:13;33.40;;;14.03;;
9076;SDS011;4574;51.072;17.174;2022-12-18T05:13:42;32.43;;;12.73;;
9076;SDS011;4574;51.072;17.174;2022-12-18T05:16:12;28.10;;;14.17;;
9076;SDS011;4574;51.072;17.174;2022-12-18T05:18:41;27.97;;;13.20;;
9076;SDS011;4574;51.072;17.174;2022-12-18T05:21:11;32.10;;;14.00;;
9076;SDS011;4574;51.072;17.174;2022-12-18T05:23:39;27.53;;;13.47;;
9076;SDS011;4574;51.072;17.174;2022-12-18T05:26:08;29.67;;;13.80;;
9076;SDS011;4574;51.072;17.174;2022-12-18T05:28:41;28.47;;;13.50;;
9076;SDS011;4574;51.072;17.174;2022-12-18T05:31:10;37.87;;;13.53;;
9076;SDS011;4574;51.072;17.174;2022-12-18T05:33:39;30.13;;;13.57;;
9076;SDS011;4574;51.072;17.174;2022-12-18T05:36:09;31.37;;;12.97;;
9076;SDS011;4574;51.072;17.174;2022-12-18T05:38:39;32.33;;;12.77;;
9076;SDS011;4574;51.072;17.174;2022-12-18T05:41:08;30.27;;;13.67;;
9076;SDS011;4574;51.072;17.174;2022-12-18T05:43:37;27.57;;;13.77;;
9076;SDS011;4574;51.072;17.174;2022-12-18T05:46:08;32.23;;;14.20;;
9076;SDS011;4574;51.072;17.174;2022-12-18T05:48:40;30.93;;;14.37;;
9076;SDS011;4574;51.072;17.174;2022-12-18T05:51:09;28.53;;;14.03;;
9076;SDS011;4574;51.072;17.174;2022-12-18T05:53:41;27.57;;;13.40;;
9076;SDS011;4574;51.072;17.174;2022-12-18T05:56:10;27.67;;;12.87;;
9076;SDS011;4574;51.072;17.174;2022-12-18T05:58:41;33.97;;;14.50;;
9076;SDS011;4574;51.072;17.174;2022-12-18T06:01:10;30.87;;;13.30;;
9076;SDS011;4574;51.072;17.174;2022-12-18T06:03:43;31.57;;;15.10;;
9076;SDS011;4574;51.072;17.174;2022-12-18T06:06:14;32.33;;;15.13;;
9076;SDS011;4574;51.072;17.174;2022-12-18T06:08:44;30.33;;;15.33;;
9076;SDS011;4574;51.072;17.174;2022-12-18T06:11:15;33.23;;;16.00;;
9076;SDS011;4574;51.072;17.174;2022-12-18T06:13:45;35.43;;;15.80;;
9076;SDS011;4574;51.072;17.174;2022-12-18T06:16:14;38.50;;;17.47;;
9076;SDS011;4574;51.072;17.174;2022-12-18T06:18:42;33.50;;;15.30;;
9076;SDS011;4574;51.072;17.174;2022-12-18T06:21:11;35.77;;;15.73;;
9076;SDS011;4574;51.072;17.174;2022-12-18T06:23:41;37.33;;;16.93;;
9076;SDS011;4574;51.072;17.174;2022-12-18T06:26:11;34.80;;;17.30;;
9076;SDS011;4574;51.072;17.174;2022-12-18T06:28:40;33.17;;;15.03;;
9076;SDS011;4574;51.072;17.174;2022-12-18T06:31:09;34.50;;;15.67;;
9076;SDS011;4574;51.072;17.174;2022-12-18T06:33:38;41.03;;;17.67;;
9076;SDS011;4574;51.072;17.174;2022-12-18T06:36:08;43.30;;;17.67;;
9076;SDS011;4574;51.072;17.174;2022-12-18T06:38:39;33.07;;;15.80;;
9076;SDS011;4574;51.072;17.174;2022-12-18T06:41:10;40.33;;;17.50;;
9076;SDS011;4574;51.072;17.174;2022-12-18T06:43:41;39.30;;;17.00;;
9076;SDS011;4574;51.072;17.174;2022-12-18T06:46:09;47.30;;;19.90;;
9076;SDS011;4574;51.072;17.174;2022-12-18T06:48:38;39.33;;;18.50;;
9076;SDS011;4574;51.072;17.174;2022-12-18T06:51:07;47.43;;;18.53;;
9076;SDS011;4574;51.072;17.174;2022-12-18T06:53:35;42.40;;;18.40;;
9076;SDS011;4574;51.072;17.174;2022-12-18T06:56:06;40.90;;;18.70;;
9076;SDS011;4574;51.072;17.174;2022-12-18T06:58:36;48.97;;;19.87;;
9076;SDS011;4574;51.072;17.174;2022-12-18T07:01:06;40.67;;;16.70;;
9076;SDS011;4574;51.072;17.174;2022-12-18T07:03:36;38.03;;;17.57;;
9076;SDS011;4574;51.072;17.174;2022-12-18T07:06:11;39.63;;;17.93;;
9076;SDS011;4574;51.072;17.174;2022-12-18T07:08:42;45.77;;;19.83;;
9076;SDS011;4574;51.072;17.174;2022-12-18T07:11:12;54.00;;;20.40;;
9076;SDS011;4574;51.072;17.174;2022-12-18T07:13:41;37.77;;;19.87;;
9076;SDS011;4574;51.072;17.174;2022-12-18T07:16:11;45.97;;;20.87;;
9076;SDS011;4574;51.072;17.174;2022-12-18T07:18:49;47.13;;;21.17;;
9076;SDS011;4574;51.072;17.174;2022-12-18T07:21:18;54.33;;;21.80;;
9076;SDS011;4574;51.072;17.174;2022-12-18T07:23:47;44.10;;;20.00;;
9076;SDS011;4574;51.072;17.174;2022-12-18T07:26:18;43.03;;;20.13;;
9076;SDS011;4574;51.072;17.174;2022-12-18T07:28:47;40.67;;;20.47;;
9076;SDS011;4574;51.072;17.174;2022-12-18T07:31:17;38.33;;;18.03;;
9076;SDS011;4574;51.072;17.174;2022-12-18T07:33:48;44.43;;;18.77;;
9076;SDS011;4574;51.072;17.174;2022-12-18T07:36:16;39.10;;;18.20;;
9076;SDS011;4574;51.072;17.174;2022-12-18T07:38:46;41.90;;;18.37;;
9076;SDS011;4574;51.072;17.174;2022-12-18T07:41:17;89.27;;;30.20;;
9076;SDS011;4574;51.072;17.174;2022-12-18T07:43:45;60.43;;;23.20;;
9076;SDS011;4574;51.072;17.174;2022-12-18T07:46:14;34.63;;;16.70;;
9076;SDS011;4574;51.072;17.174;2022-12-18T07:48:44;41.67;;;17.30;;
9076;SDS011;4574;51.072;17.174;2022-12-18T07:51:15;41.70;;;19.03;;
9076;SDS011;4574;51.072;17.174;2022-12-18T07:53:44;49.00;;;24.37;;
9076;SDS011;4574;51.072;17.174;2022-12-18T07:56:19;53.53;;;26.83;;
9076;SDS011;4574;51.072;17.174;2022-12-18T07:58:56;51.10;;;22.83;;
9076;SDS011;4574;51.072;17.174;2022-12-18T08:01:26;40.17;;;20.73;;
9076;SDS011;4574;51.072;17.174;2022-12-18T08:03:55;38.40;;;18.17;;
9076;SDS011;4574;51.072;17.174;2022-12-18T08:06:23;42.00;;;18.33;;
9076;SDS011;4574;51.072;17.174;2022-12-18T08:08:52;37.10;;;16.73;;
9076;SDS011;4574;51.072;17.174;2022-12-18T08:11:23;32.47;;;16.37;;
9076;SDS011;4574;51.072;17.174;2022-12-18T08:13:53;41.00;;;17.80;;
9076;SDS011;4574;51.072;17.174;2022-12-18T08:16:22;42.50;;;18.17;;
9076;SDS011;4574;51.072;17.174;2022-12-18T08:18:51;38.40;;;16.60;;
9076;SDS011;4574;51.072;17.174;2022-12-18T08:21:21;38.17;;;17.23;;
9076;SDS011;4574;51.072;17.174;2022-12-18T08:23:51;33.03;;;15.90;;
9076;SDS011;4574;51.072;17.174;2022-12-18T08:26:20;33.77;;;18.07;;
9076;SDS011;4574;51.072;17.174;2022-12-18T08:28:51;33.77;;;15.67;;
9076;SDS011;4574;51.072;17.174;2022-12-18T08:31:21;36.07;;;17.23;;
9076;SDS011;4574;51.072;17.174;2022-12-18T08:33:50;32.87;;;15.93;;
9076;SDS011;4574;51.072;17.174;2022-12-18T08:36:20;29.90;;;15.17;;
9076;SDS011;4574;51.072;17.174;2022-12-18T08:38:50;32.53;;;16.67;;
9076;SDS011;4574;51.072;17.174;2022-12-18T08:41:19;32.17;;;16.47;;
9076;SDS011;4574;51.072;17.174;2022-12-18T08:43:50;32.43;;;15.33;;
9076;SDS011;4574;51.072;17.174;2022-12-18T08:46:36;52.20;;;18.47;;
9076;SDS011;4574;51.072;17.174;2022-12-18T08:49:07;33.57;;;14.87;;
9076;SDS011;4574;51.072;17.174;2022-12-18T08:51:36;34.73;;;17.30;;
9076;SDS011;4574;51.072;17.174;2022-12-18T08:54:05;34.30;;;15.90;;
9076;SDS011;4574;51.072;17.174;2022-12-18T08:56:34;47.67;;;20.53;;
9076;SDS011;4574;51.072;17.174;2022-12-18T08:59:04;38.87;;;17.70;;
9076;SDS011;4574;51.072;17.174;2022-12-18T09:01:33;37.53;;;18.27;;
9076;SDS011;4574;51.072;17.174;2022-12-18T09:04:02;34.93;;;17.60;;
9076;SDS011;4574;51.072;17.174;2022-12-18T09:06:32;37.27;;;18.37;;
9076;SDS011;4574;51.072;17.174;2022-12-18T09:09:02;54.03;;;28.37;;
9076;SDS011;4574;51.072;17.174;2022-12-18T09:11:31;32.63;;;18.07;;
9076;SDS011;4574;51.072;17.174;2022-12-18T09:14:01;34.47;;;17.97;;
9076;SDS011;4574;51.072;17.174;2022-12-18T09:16:31;40.07;;;18.63;;
9076;SDS011;4574;51.072;17.174;2022-12-18T09:19:02;36.57;;;17.27;;
9076;SDS011;4574;51.072;17.174;2022-12-18T09:21:32;29.67;;;16.10;;
9076;SDS011;4574;51.072;17.174;2022-12-18T09:24:03;38.83;;;16.13;;
9076;SDS011;4574;51.072;17.174;2022-12-18T09:26:34;29.97;;;13.17;;
9076;SDS011;4574;51.072;17.174;2022-12-18T09:29:03;34.17;;;15.90;;
9076;SDS011;4574;51.072;17.174;2022-12-18T09:31:32;29.83;;;14.93;;
9076;SDS011;4574;51.072;17.174;2022-12-18T09:34:06;30.60;;;13.70;;
9076;SDS011;4574;51.072;17.174;2022-12-18T09:36:35;32.83;;;15.93;;
9076;SDS011;4574;51.072;17.174;2022-12-18T09:39:03;29.43;;;14.40;;
9076;SDS011;4574;51.072;17.174;2022-12-18T09:41:44;30.70;;;15.87;;
9076;SDS011;4574;51.072;17.174;2022-12-18T09:44:22;29.60;;;13.33;;
9076;SDS011;4574;51.072;17.174;2022-12-18T09:46:57;27.43;;;13.67;;
9076;SDS011;4574;51.072;17.174;2022-12-18T09:49:34;33.90;;;16.00;;
9076;SDS011;4574;51.072;17.174;2022-12-18T09:52:08;30.93;;;15.63;;
9076;SDS011;4574;51.072;17.174;2022-12-18T09:54:41;38.17;;;19.07;;
9076;SDS011;4574;51.072;17.174;2022-12-18T09:57:15;37.37;;;17.63;;
9076;SDS011;4574;51.072;17.174;2022-12-18T09:59:46;35.17;;;17.00;;
9076;SDS011;4574;51.072;17.174;2022-12-18T10:02:22;35.47;;;16.77;;
9076;SDS011;4574;51.072;17.174;2022-12-18T10:05:01;29.87;;;15.40;;
9076;SDS011;4574;51.072;17.174;2022-12-18T10:07:40;31.77;;;13.90;;
9076;SDS011;4574;51.072;17.174;2022-12-18T10:10:19;48.63;;;19.93;;
9076;SDS011;4574;51.072;17.174;2022-12-18T10:13:02;32.93;;;16.77;;
9076;SDS011;4574;51.072;17.174;2022-12-18T10:15:50;55.83;;;21.50;;
9076;SDS011;4574;51.072;17.174;2022-12-18T10:18:32;42.33;;;18.57;;
9076;SDS011;4574;51.072;17.174;2022-12-18T10:21:13;63.67;;;23.57;;
9076;SDS011;4574;51.072;17.174;2022-12-18T10:23:47;42.73;;;18.97;;
9076;SDS011;4574;51.072;17.174;2022-12-18T10:26:23;40.67;;;17.17;;
9076;SDS011;4574;51.072;17.174;2022-12-18T10:28:52;43.53;;;17.87;;
9076;SDS011;4574;51.072;17.174;2022-12-18T10:31:30;50.43;;;19.53;;
9076;SDS011;4574;51.072;17.174;2022-12-18T10:34:01;33.47;;;16.10;;
9076;SDS011;4574;51.072;17.174;2022-12-18T10:36:29;35.37;;;16.17;;
9076;SDS011;4574;51.072;17.174;2022-12-18T10:39:01;31.00;;;15.37;;
9076;SDS011;4574;51.072;17.174;2022-12-18T10:41:42;36.23;;;17.30;;
9076;SDS011;4574;51.072;17.174;2022-12-18T10:44:12;45.63;;;18.57;;
9076;SDS011;4574;51.072;17.174;2022-12-18T10:46:47;50.73;;;22.17;;
9076;SDS011;4574;51.072;17.174;2022-12-18T10:49:23;33.73;;;15.23;;
9076;SDS011;4574;51.072;17.174;2022-12-18T10:52:04;33.37;;;16.70;;
9076;SDS011;4574;51.072;17.174;2022-12-18T10:54:35;41.27;;;18.20;;
9076;SDS011;4574;51.072;17.174;2022-12-18T10:57:14;36.07;;;17.67;;
9076;SDS011;4574;51.072;17.174;2022-12-18T10:59:50;38.93;;;18.53;;
9076;SDS011;4574;51.072;17.174;2022-12-18T11:02:26;42.70;;;18.90;;
9076;SDS011;4574;51.072;17.174;2022-12-18T11:05:03;40.37;;;18.97;;
9076;SDS011;4574;51.072;17.174;2022-12-18T11:07:53;37.57;;;17.97;;
9076;SDS011;4574;51.072;17.174;2022-12-18T11:10:23;42.37;;;18.53;;
9076;SDS011;4574;51.072;17.174;2022-12-18T11:12:56;44.03;;;19.47;;
9076;SDS011;4574;51.072;17.174;2022-12-18T11:15:37;40.57;;;19.43;;
9076;SDS011;4574;51.072;17.174;2022-12-18T11:18:15;50.67;;;21.00;;
9076;SDS011;4574;51.072;17.174;2022-12-18T11:20:51;49.33;;;20.43;;
9076;SDS011;4574;51.072;17.174;2022-12-18T11:23:24;47.03;;;20.20;;
9076;SDS011;4574;51.072;17.174;2022-12-18T11:25:55;53.77;;;21.40;;
9076;SDS011;4574;51.072;17.174;2022-12-18T11:28:27;47.17;;;18.90;;
9076;SDS011;4574;51.072;17.174;2022-12-18T11:31:09;60.10;;;22.70;;
9076;SDS011;4574;51.072;17.174;2022-12-18T11:33:45;47.77;;;19.27;;
9076;SDS011;4574;51.072;17.174;2022-12-18T11:36:41;55.57;;;22.67;;
9076;SDS011;4574;51.072;17.174;2022-12-18T11:39:16;50.97;;;22.10;;
9076;SDS011;4574;51.072;17.174;2022-12-18T11:41:49;39.93;;;18.33;;
9076;SDS011;4574;51.072;17.174;2022-12-18T11:44:44;50.73;;;22.10;;
9076;SDS011;4574;51.072;17.174;2022-12-18T11:47:19;50.77;;;21.00;;
9076;SDS011;4574;51.072;17.174;2022-12-18T11:49:53;46.73;;;21.60;;
9076;SDS011;4574;51.072;17.174;2022-12-18T11:52:26;46.93;;;22.37;;
9076;SDS011;4574;51.072;17.174;2022-12-18T11:54:57;54.80;;;23.30;;
9076;SDS011;4574;51.072;17.174;2022-12-18T11:57:31;52.27;;;22.87;;
9076;SDS011;4574;51.072;17.174;2022-12-18T12:00:11;56.13;;;22.57;;
9076;SDS011;4574;51.072;17.174;2022-12-18T12:02:49;43.73;;;20.20;;
9076;SDS011;4574;51.072;17.174;2022-12-18T12:05:54;45.70;;;19.47;;
9076;SDS011;4574;51.072;17.174;2022-12-18T12:08:38;41.30;;;17.67;;
9076;SDS011;4574;51.072;17.174;2022-12-18T12:11:19;39.63;;;18.87;;
9076;SDS011;4574;51.072;17.174;2022-12-18T12:13:59;48.40;;;20.20;;
9076;SDS011;4574;51.072;17.174;2022-12-18T12:16:38;43.30;;;19.00;;
9076;SDS011;4574;51.072;17.174;2022-12-18T12:19:18;75.07;;;29.30;;
9076;SDS011;4574;51.072;17.174;2022-12-18T12:22:00;60.20;;;24.53;;
9076;SDS011;4574;51.072;17.174;2022-12-18T12:24:41;58.90;;;21.53;;
9076;SDS011;4574;51.072;17.174;2022-12-18T12:27:22;36.83;;;18.60;;
9076;SDS011;4574;51.072;17.174;2022-12-18T12:30:00;43.77;;;19.67;;
9076;SDS011;4574;51.072;17.174;2022-12-18T12:32:43;47.67;;;20.47;;
9076;SDS011;4574;51.072;17.174;2022-12-18T12:35:22;50.00;;;21.07;;
9076;SDS011;4574;51.072;17.174;2022-12-18T12:38:00;44.93;;;19.67;;
9076;SDS011;4574;51.072;17.174;2022-12-18T12:40:38;46.70;;;21.27;;
9076;SDS011;4574;51.072;17.174;2022-12-18T12:43:30;48.23;;;20.17;;
9076;SDS011;4574;51.072;17.174;2022-12-18T12:46:04;40.83;;;19.27;;
9076;SDS011;4574;51.072;17.174;2022-12-18T12:48:40;49.13;;;21.60;;
9076;SDS011;4574;51.072;17.174;2022-12-18T12:51:13;47.30;;;20.00;;
9076;SDS011;4574;51.072;17.174;2022-12-18T12:53:46;52.83;;;22.37;;
9076;SDS011;4574;51.072;17.174;2022-12-18T12:56:17;48.67;;;23.23;;
9076;SDS011;4574;51.072;17.174;2022-12-18T12:58:52;55.00;;;22.73;;
9076;SDS011;4574;51.072;17.174;2022-12-18T13:01:28;51.63;;;22.97;;
9076;SDS011;4574;51.072;17.174;2022-12-18T13:04:08;54.27;;;22.37;;
9076;SDS011;4574;51.072;17.174;2022-12-18T13:06:50;40.63;;;19.43;;
9076;SDS011;4574;51.072;17.174;2022-12-18T13:09:29;48.60;;;21.07;;
9076;SDS011;4574;51.072;17.174;2022-12-18T13:12:04;51.40;;;18.83;;
9076;SDS011;4574;51.072;17.174;2022-12-18T13:15:11;41.77;;;17.70;;
9076;SDS011;4574;51.072;17.174;2022-12-18T13:17:47;47.60;;;18.40;;
9076;SDS011;4574;51.072;17.174;2022-12-18T13:20:16;44.83;;;19.70;;
9076;SDS011;4574;51.072;17.174;2022-12-18T13:22:46;39.87;;;18.63;;
9076;SDS011;4574;51.072;17.174;2022-12-18T13:25:33;41.67;;;18.63;;
9076;SDS011;4574;51.072;17.174;2022-12-18T13:28:09;38.63;;;17.90;;
9076;SDS011;4574;51.072;17.174;2022-12-18T13:30:45;43.33;;;20.77;;
9076;SDS011;4574;51.072;17.174;2022-12-18T13:36:32;44.77;;;19.30;;
9076;SDS011;4574;51.072;17.174;2022-12-18T13:39:15;33.77;;;15.23;;
9076;SDS011;4574;51.072;17.174;2022-12-18T13:45:37;51.83;;;21.37;;
9076;SDS011;4574;51.072;17.174;2022-12-18T13:48:18;47.50;;;22.57;;
9076;SDS011;4574;51.072;17.174;2022-12-18T13:50:55;44.03;;;18.67;;
9076;SDS011;4574;51.072;17.174;2022-12-18T13:53:28;47.23;;;20.60;;
9076;SDS011;4574;51.072;17.174;2022-12-18T13:56:01;43.67;;;19.43;;
9076;SDS011;4574;51.072;17.174;2022-12-18T13:58:30;50.43;;;19.83;;
9076;SDS011;4574;51.072;17.174;2022-12-18T14:01:01;47.47;;;21.07;;
9076;SDS011;4574;51.072;17.174;2022-12-18T14:03:31;46.60;;;19.37;;
9076;SDS011;4574;51.072;17.174;2022-12-18T14:06:01;51.40;;;21.30;;
9076;SDS011;4574;51.072;17.174;2022-12-18T14:08:33;48.77;;;23.50;;
9076;SDS011;4574;51.072;17.174;2022-12-18T14:11:06;53.40;;;24.23;;
9076;SDS011;4574;51.072;17.174;2022-12-18T14:13:40;60.27;;;25.63;;
9076;SDS011;4574;51.072;17.174;2022-12-18T14:16:12;66.47;;;26.30;;
9076;SDS011;4574;51.072;17.174;2022-12-18T14:18:44;64.37;;;27.63;;
9076;SDS011;4574;51.072;17.174;2022-12-18T14:21:17;62.20;;;26.77;;
9076;SDS011;4574;51.072;17.174;2022-12-18T14:23:49;58.80;;;22.13;;
9076;SDS011;4574;51.072;17.174;2022-12-18T14:26:31;63.10;;;22.83;;
9076;SDS011;4574;51.072;17.174;2022-12-18T14:29:00;58.73;;;26.17;;
9076;SDS011;4574;51.072;17.174;2022-12-18T14:31:50;63.07;;;27.83;;
9076;SDS011;4574;51.072;17.174;2022-12-18T14:34:40;56.80;;;23.07;;
9076;SDS011;4574;51.072;17.174;2022-12-18T14:37:09;71.97;;;28.70;;
9076;SDS011;4574;51.072;17.174;2022-12-18T14:39:39;58.20;;;25.37;;
9076;SDS011;4574;51.072;17.174;2022-12-18T14:42:10;65.37;;;25.97;;
9076;SDS011;4574;51.072;17.174;2022-12-18T14:44:39;66.33;;;27.30;;
9076;SDS011;4574;51.072;17.174;2022-12-18T14:47:29;58.50;;;24.77;;
9076;SDS011;4574;51.072;17.174;2022-12-18T14:49:58;65.07;;;25.20;;
9076;SDS011;4574;51.072;17.174;2022-12-18T14:52:28;59.27;;;24.07;;
9076;SDS011;4574;51.072;17.174;2022-12-18T14:54:59;62.07;;;26.10;;
9076;SDS011;4574;51.072;17.174;2022-12-18T14:57:29;57.40;;;25.03;;
9076;SDS011;4574;51.072;17.174;2022-12-18T15:00:04;54.20;;;23.53;;
9076;SDS011;4574;51.072;17.174;2022-12-18T15:02:36;69.53;;;27.10;;
9076;SDS011;4574;51.072;17.174;2022-12-18T15:05:05;67.50;;;28.00;;
9076;SDS011;4574;51.072;17.174;2022-12-18T15:07:46;68.93;;;29.90;;
9076;SDS011;4574;51.072;17.174;2022-12-18T15:10:16;57.47;;;25.07;;
9076;SDS011;4574;51.072;17.174;2022-12-18T15:12:47;71.60;;;29.17;;
9076;SDS011;4574;51.072;17.174;2022-12-18T15:18:21;64.50;;;28.30;;